sensor_id;sensor_type;location;lat;lon;timestamp;P1;durP1;ratioP1;P2;durP2;ratioP2
6791;SDS011;3433;48.730;9.108;2023-05-14T00:00:47;9.87;;;8.87;;
6791;SDS011;3433;48.730;9.108;2023-05-14T00:03:14;14.93;;;8.60;;
6791;SDS011;3433;48.730;9.108;2023-05-14T00:05:41;9.93;;;8.93;;
6791;SDS011;3433;48.730;9.108;2023-05-14T00:08:08;9.90;;;8.57;;
6791;SDS011;3433;48.730;9.108;2023-05-14T00:10:35;10.33;;;9.10;;
6791;SDS011;3433;48.730;9.108;2023-05-14T00:13:03;11.73;;;9.87;;
6791;SDS011;3433;48.730;9.108;2023-05-14T00:15:30;9.63;;;8.63;;
6791;SDS011;3433;48.730;9.108;2023-05-14T00:17:57;9.70;;;8.07;;
6791;SDS011;3433;48.730;9.108;2023-05-14T00:20:24;10.57;;;9.23;;
6791;SDS011;3433;48.730;9.108;2023-05-14T00:22:51;10.20;;;9.00;;
6791;SDS011;3433;48.730;9.108;2023-05-14T00:25:19;9.87;;;8.50;;
6791;SDS011;3433;48.730;9.108;2023-05-14T00:28:06;9.40;;;8.27;;
6791;SDS011;3433;48.730;9.108;2023-05-14T00:30:52;10.07;;;8.43;;
6791;SDS011;3433;48.730;9.108;2023-05-14T00:33:20;9.50;;;8.57;;
6791;SDS011;3433;48.730;9.108;2023-05-14T00:35:47;11.53;;;8.90;;
6791;SDS011;3433;48.730;9.108;2023-05-14T00:38:15;9.77;;;8.80;;
6791;SDS011;3433;48.730;9.108;2023-05-14T00:40:43;9.63;;;8.50;;
6791;SDS011;3433;48.730;9.108;2023-05-14T00:43:16;10.90;;;9.77;;
6791;SDS011;3433;48.730;9.108;2023-05-14T00:45:43;12.77;;;9.07;;
6791;SDS011;3433;48.730;9.108;2023-05-14T00:48:11;12.03;;;10.00;;
6791;SDS011;3433;48.730;9.108;2023-05-14T00:50:38;13.80;;;9.53;;
6791;SDS011;3433;48.730;9.108;2023-05-14T00:53:06;12.23;;;9.00;;
6791;SDS011;3433;48.730;9.108;2023-05-14T00:55:34;15.50;;;9.77;;
6791;SDS011;3433;48.730;9.108;2023-05-14T00:58:03;14.83;;;10.07;;
6791;SDS011;3433;48.730;9.108;2023-05-14T01:00:35;11.27;;;10.07;;
6791;SDS011;3433;48.730;9.108;2023-05-14T01:03:04;12.93;;;9.10;;
6791;SDS011;3433;48.730;9.108;2023-05-14T01:05:34;13.17;;;10.30;;
6791;SDS011;3433;48.730;9.108;2023-05-14T01:08:08;11.67;;;9.23;;
6791;SDS011;3433;48.730;9.108;2023-05-14T01:10:44;10.90;;;8.70;;
6791;SDS011;3433;48.730;9.108;2023-05-14T01:13:17;12.00;;;10.40;;
6791;SDS011;3433;48.730;9.108;2023-05-14T01:15:51;11.07;;;9.97;;
6791;SDS011;3433;48.730;9.108;2023-05-14T01:18:21;10.70;;;9.20;;
6791;SDS011;3433;48.730;9.108;2023-05-14T01:20:49;10.63;;;9.53;;
6791;SDS011;3433;48.730;9.108;2023-05-14T01:23:18;11.47;;;10.00;;
6791;SDS011;3433;48.730;9.108;2023-05-14T01:25:45;12.37;;;10.40;;
6791;SDS011;3433;48.730;9.108;2023-05-14T01:28:14;11.50;;;9.20;;
6791;SDS011;3433;48.730;9.108;2023-05-14T01:30:44;10.80;;;9.33;;
6791;SDS011;3433;48.730;9.108;2023-05-14T01:33:15;10.40;;;9.30;;
6791;SDS011;3433;48.730;9.108;2023-05-14T01:35:44;12.40;;;10.30;;
6791;SDS011;3433;48.730;9.108;2023-05-14T01:38:12;10.80;;;9.70;;
6791;SDS011;3433;48.730;9.108;2023-05-14T01:40:42;11.17;;;8.50;;
6791;SDS011;3433;48.730;9.108;2023-05-14T01:43:11;9.23;;;8.20;;
6791;SDS011;3433;48.730;9.108;2023-05-14T01:45:40;11.73;;;9.67;;
6791;SDS011;3433;48.730;9.108;2023-05-14T01:48:07;11.97;;;9.17;;
6791;SDS011;3433;48.730;9.108;2023-05-14T01:50:34;11.13;;;9.73;;
6791;SDS011;3433;48.730;9.108;2023-05-14T01:53:01;13.73;;;9.73;;
6791;SDS011;3433;48.730;9.108;2023-05-14T01:55:29;10.83;;;9.73;;
6791;SDS011;3433;48.730;9.108;2023-05-14T01:57:58;14.67;;;10.33;;
6791;SDS011;3433;48.730;9.108;2023-05-14T02:00:25;13.80;;;9.40;;
6791;SDS011;3433;48.730;9.108;2023-05-14T02:02:52;10.70;;;9.03;;
6791;SDS011;3433;48.730;9.108;2023-05-14T02:05:22;10.53;;;9.43;;
6791;SDS011;3433;48.730;9.108;2023-05-14T02:07:49;11.70;;;9.70;;
6791;SDS011;3433;48.730;9.108;2023-05-14T02:10:16;13.27;;;9.40;;
6791;SDS011;3433;48.730;9.108;2023-05-14T02:12:43;11.50;;;10.20;;
6791;SDS011;3433;48.730;9.108;2023-05-14T02:15:12;11.40;;;9.60;;
6791;SDS011;3433;48.730;9.108;2023-05-14T02:17:39;12.67;;;9.13;;
6791;SDS011;3433;48.730;9.108;2023-05-14T02:20:06;12.10;;;9.83;;
6791;SDS011;3433;48.730;9.108;2023-05-14T02:22:35;12.57;;;10.17;;
6791;SDS011;3433;48.730;9.108;2023-05-14T02:25:03;11.20;;;9.93;;
6791;SDS011;3433;48.730;9.108;2023-05-14T02:27:30;10.40;;;9.23;;
6791;SDS011;3433;48.730;9.108;2023-05-14T02:29:57;11.47;;;9.20;;
6791;SDS011;3433;48.730;9.108;2023-05-14T02:32:26;11.00;;;9.60;;
6791;SDS011;3433;48.730;9.108;2023-05-14T02:34:54;12.37;;;9.70;;
6791;SDS011;3433;48.730;9.108;2023-05-14T02:37:20;14.10;;;9.70;;
6791;SDS011;3433;48.730;9.108;2023-05-14T02:39:48;13.90;;;10.17;;
6791;SDS011;3433;48.730;9.108;2023-05-14T02:42:15;16.90;;;12.40;;
6791;SDS011;3433;48.730;9.108;2023-05-14T02:44:42;13.60;;;10.47;;
6791;SDS011;3433;48.730;9.108;2023-05-14T02:47:09;12.37;;;10.57;;
6791;SDS011;3433;48.730;9.108;2023-05-14T02:49:38;12.03;;;10.17;;
6791;SDS011;3433;48.730;9.108;2023-05-14T02:52:05;12.20;;;10.40;;
6791;SDS011;3433;48.730;9.108;2023-05-14T02:54:33;15.60;;;11.00;;
6791;SDS011;3433;48.730;9.108;2023-05-14T02:57:00;14.47;;;10.83;;
6791;SDS011;3433;48.730;9.108;2023-05-14T02:59:27;16.53;;;11.60;;
6791;SDS011;3433;48.730;9.108;2023-05-14T03:01:55;13.40;;;10.73;;
6791;SDS011;3433;48.730;9.108;2023-05-14T03:04:23;13.70;;;11.33;;
6791;SDS011;3433;48.730;9.108;2023-05-14T03:06:51;12.60;;;10.80;;
6791;SDS011;3433;48.730;9.108;2023-05-14T03:09:21;12.73;;;10.70;;
6791;SDS011;3433;48.730;9.108;2023-05-14T03:11:48;13.53;;;10.70;;
6791;SDS011;3433;48.730;9.108;2023-05-14T03:14:16;11.90;;;10.50;;
6791;SDS011;3433;48.730;9.108;2023-05-14T03:16:43;12.90;;;10.43;;
6791;SDS011;3433;48.730;9.108;2023-05-14T03:19:10;13.23;;;10.60;;
6791;SDS011;3433;48.730;9.108;2023-05-14T03:21:37;14.43;;;10.87;;
6791;SDS011;3433;48.730;9.108;2023-05-14T03:24:05;12.50;;;11.00;;
6791;SDS011;3433;48.730;9.108;2023-05-14T03:26:32;12.77;;;10.57;;
6791;SDS011;3433;48.730;9.108;2023-05-14T03:28:59;11.93;;;10.13;;
6791;SDS011;3433;48.730;9.108;2023-05-14T03:31:28;13.17;;;10.63;;
6791;SDS011;3433;48.730;9.108;2023-05-14T03:33:55;10.80;;;9.33;;
6791;SDS011;3433;48.730;9.108;2023-05-14T03:36:22;13.17;;;10.53;;
6791;SDS011;3433;48.730;9.108;2023-05-14T03:38:50;11.23;;;10.03;;
6791;SDS011;3433;48.730;9.108;2023-05-14T03:41:18;11.80;;;10.03;;
6791;SDS011;3433;48.730;9.108;2023-05-14T03:43:46;11.93;;;10.27;;
6791;SDS011;3433;48.730;9.108;2023-05-14T03:46:13;13.97;;;11.13;;
6791;SDS011;3433;48.730;9.108;2023-05-14T03:48:40;14.10;;;11.00;;
6791;SDS011;3433;48.730;9.108;2023-05-14T03:51:07;14.50;;;11.27;;
6791;SDS011;3433;48.730;9.108;2023-05-14T03:53:34;14.00;;;11.27;;
6791;SDS011;3433;48.730;9.108;2023-05-14T03:56:01;14.57;;;10.37;;
6791;SDS011;3433;48.730;9.108;2023-05-14T03:58:30;14.67;;;11.27;;
6791;SDS011;3433;48.730;9.108;2023-05-14T04:00:57;14.03;;;10.63;;
6791;SDS011;3433;48.730;9.108;2023-05-14T04:03:24;15.63;;;12.17;;
6791;SDS011;3433;48.730;9.108;2023-05-14T04:05:51;15.30;;;10.67;;
6791;SDS011;3433;48.730;9.108;2023-05-14T04:08:21;14.20;;;12.03;;
6791;SDS011;3433;48.730;9.108;2023-05-14T04:10:48;15.10;;;11.80;;
6791;SDS011;3433;48.730;9.108;2023-05-14T04:13:15;13.43;;;10.90;;
6791;SDS011;3433;48.730;9.108;2023-05-14T04:15:43;14.90;;;11.63;;
6791;SDS011;3433;48.730;9.108;2023-05-14T04:18:10;13.23;;;10.63;;
6791;SDS011;3433;48.730;9.108;2023-05-14T04:20:37;15.23;;;11.27;;
6791;SDS011;3433;48.730;9.108;2023-05-14T04:23:04;13.30;;;10.60;;
6791;SDS011;3433;48.730;9.108;2023-05-14T04:25:31;15.10;;;11.40;;
6791;SDS011;3433;48.730;9.108;2023-05-14T04:27:58;14.07;;;11.33;;
6791;SDS011;3433;48.730;9.108;2023-05-14T04:30:25;14.50;;;11.63;;
6791;SDS011;3433;48.730;9.108;2023-05-14T04:32:53;13.93;;;10.53;;
6791;SDS011;3433;48.730;9.108;2023-05-14T04:35:23;13.47;;;11.30;;
6791;SDS011;3433;48.730;9.108;2023-05-14T04:37:51;14.87;;;11.30;;
6791;SDS011;3433;48.730;9.108;2023-05-14T04:40:21;15.07;;;11.07;;
6791;SDS011;3433;48.730;9.108;2023-05-14T04:42:48;13.33;;;11.70;;
6791;SDS011;3433;48.730;9.108;2023-05-14T04:45:16;14.67;;;11.13;;
6791;SDS011;3433;48.730;9.108;2023-05-14T04:47:43;14.80;;;11.60;;
6791;SDS011;3433;48.730;9.108;2023-05-14T04:50:12;13.90;;;11.07;;
6791;SDS011;3433;48.730;9.108;2023-05-14T04:52:40;13.27;;;11.23;;
6791;SDS011;3433;48.730;9.108;2023-05-14T04:55:08;12.80;;;10.90;;
6791;SDS011;3433;48.730;9.108;2023-05-14T04:57:35;13.60;;;11.00;;
6791;SDS011;3433;48.730;9.108;2023-05-14T05:00:02;17.23;;;12.03;;
6791;SDS011;3433;48.730;9.108;2023-05-14T05:02:35;15.53;;;11.13;;
6791;SDS011;3433;48.730;9.108;2023-05-14T05:05:02;15.43;;;11.77;;
6791;SDS011;3433;48.730;9.108;2023-05-14T05:07:30;14.43;;;11.60;;
6791;SDS011;3433;48.730;9.108;2023-05-14T05:09:57;16.27;;;11.90;;
6791;SDS011;3433;48.730;9.108;2023-05-14T05:12:24;12.87;;;10.57;;
6791;SDS011;3433;48.730;9.108;2023-05-14T05:14:54;13.53;;;9.90;;
6791;SDS011;3433;48.730;9.108;2023-05-14T05:17:21;16.40;;;12.10;;
6791;SDS011;3433;48.730;9.108;2023-05-14T05:19:48;13.00;;;11.07;;
6791;SDS011;3433;48.730;9.108;2023-05-14T05:22:15;13.60;;;11.63;;
6791;SDS011;3433;48.730;9.108;2023-05-14T05:24:44;12.40;;;10.33;;
6791;SDS011;3433;48.730;9.108;2023-05-14T05:27:11;14.57;;;10.87;;
6791;SDS011;3433;48.730;9.108;2023-05-14T05:29:38;14.10;;;10.17;;
6791;SDS011;3433;48.730;9.108;2023-05-14T05:32:06;13.43;;;10.70;;
6791;SDS011;3433;48.730;9.108;2023-05-14T05:34:33;14.37;;;11.30;;
6791;SDS011;3433;48.730;9.108;2023-05-14T05:37:00;14.10;;;11.37;;
6791;SDS011;3433;48.730;9.108;2023-05-14T05:39:29;13.73;;;10.77;;
6791;SDS011;3433;48.730;9.108;2023-05-14T05:42:00;14.53;;;10.90;;
6791;SDS011;3433;48.730;9.108;2023-05-14T05:44:27;12.07;;;9.90;;
6791;SDS011;3433;48.730;9.108;2023-05-14T05:46:54;13.97;;;10.83;;
6791;SDS011;3433;48.730;9.108;2023-05-14T05:49:21;16.10;;;10.57;;
6791;SDS011;3433;48.730;9.108;2023-05-14T05:51:48;14.20;;;10.50;;
6791;SDS011;3433;48.730;9.108;2023-05-14T05:54:15;12.97;;;10.50;;
6791;SDS011;3433;48.730;9.108;2023-05-14T05:56:42;13.70;;;10.33;;
6791;SDS011;3433;48.730;9.108;2023-05-14T05:59:11;15.33;;;10.90;;
6791;SDS011;3433;48.730;9.108;2023-05-14T06:01:38;11.30;;;9.77;;
6791;SDS011;3433;48.730;9.108;2023-05-14T06:04:07;14.50;;;11.20;;
6791;SDS011;3433;48.730;9.108;2023-05-14T06:06:34;14.80;;;11.33;;
6791;SDS011;3433;48.730;9.108;2023-05-14T06:09:01;15.63;;;11.57;;
6791;SDS011;3433;48.730;9.108;2023-05-14T06:11:28;12.77;;;10.40;;
6791;SDS011;3433;48.730;9.108;2023-05-14T06:13:55;14.27;;;10.70;;
6791;SDS011;3433;48.730;9.108;2023-05-14T06:16:23;15.13;;;10.80;;
6791;SDS011;3433;48.730;9.108;2023-05-14T06:18:50;12.43;;;11.13;;
6791;SDS011;3433;48.730;9.108;2023-05-14T06:21:18;14.60;;;11.27;;
6791;SDS011;3433;48.730;9.108;2023-05-14T06:23:45;14.17;;;10.30;;
6791;SDS011;3433;48.730;9.108;2023-05-14T06:26:12;15.43;;;11.10;;
6791;SDS011;3433;48.730;9.108;2023-05-14T06:28:39;12.83;;;10.73;;
6791;SDS011;3433;48.730;9.108;2023-05-14T06:31:06;14.57;;;11.93;;
6791;SDS011;3433;48.730;9.108;2023-05-14T06:33:35;13.80;;;10.70;;
6791;SDS011;3433;48.730;9.108;2023-05-14T06:36:02;13.50;;;10.43;;
6791;SDS011;3433;48.730;9.108;2023-05-14T06:38:31;19.00;;;12.10;;
6791;SDS011;3433;48.730;9.108;2023-05-14T06:40:58;15.80;;;12.27;;
6791;SDS011;3433;48.730;9.108;2023-05-14T06:43:25;16.17;;;11.50;;
6791;SDS011;3433;48.730;9.108;2023-05-14T06:45:52;13.20;;;10.50;;
6791;SDS011;3433;48.730;9.108;2023-05-14T06:48:22;17.80;;;11.53;;
6791;SDS011;3433;48.730;9.108;2023-05-14T06:50:53;14.17;;;11.03;;
6791;SDS011;3433;48.730;9.108;2023-05-14T06:53:20;13.90;;;11.60;;
6791;SDS011;3433;48.730;9.108;2023-05-14T06:55:47;14.50;;;11.60;;
6791;SDS011;3433;48.730;9.108;2023-05-14T06:58:14;15.10;;;12.00;;
6791;SDS011;3433;48.730;9.108;2023-05-14T07:00:41;16.20;;;12.30;;
6791;SDS011;3433;48.730;9.108;2023-05-14T07:03:08;14.20;;;10.90;;
6791;SDS011;3433;48.730;9.108;2023-05-14T07:05:35;14.07;;;11.37;;
6791;SDS011;3433;48.730;9.108;2023-05-14T07:08:03;16.20;;;13.13;;
6791;SDS011;3433;48.730;9.108;2023-05-14T07:10:31;16.37;;;11.60;;
6791;SDS011;3433;48.730;9.108;2023-05-14T07:12:57;15.07;;;11.80;;
6791;SDS011;3433;48.730;9.108;2023-05-14T07:15:24;15.77;;;11.47;;
6791;SDS011;3433;48.730;9.108;2023-05-14T07:17:51;16.87;;;11.17;;
6791;SDS011;3433;48.730;9.108;2023-05-14T07:20:21;15.00;;;11.03;;
6791;SDS011;3433;48.730;9.108;2023-05-14T07:22:48;17.47;;;11.57;;
6791;SDS011;3433;48.730;9.108;2023-05-14T07:25:17;14.47;;;11.80;;
6791;SDS011;3433;48.730;9.108;2023-05-14T07:27:44;20.77;;;13.40;;
6791;SDS011;3433;48.730;9.108;2023-05-14T07:30:11;16.87;;;12.73;;
6791;SDS011;3433;48.730;9.108;2023-05-14T07:32:38;16.37;;;13.17;;
6791;SDS011;3433;48.730;9.108;2023-05-14T07:35:05;15.23;;;11.80;;
6791;SDS011;3433;48.730;9.108;2023-05-14T07:37:33;14.50;;;10.50;;
6791;SDS011;3433;48.730;9.108;2023-05-14T07:40:00;14.70;;;11.50;;
6791;SDS011;3433;48.730;9.108;2023-05-14T07:42:28;15.00;;;11.53;;
6791;SDS011;3433;48.730;9.108;2023-05-14T07:44:55;15.30;;;11.43;;
6791;SDS011;3433;48.730;9.108;2023-05-14T07:47:22;17.00;;;12.13;;
6791;SDS011;3433;48.730;9.108;2023-05-14T07:49:52;16.07;;;11.80;;
6791;SDS011;3433;48.730;9.108;2023-05-14T07:52:22;18.33;;;11.90;;
6791;SDS011;3433;48.730;9.108;2023-05-14T07:54:50;17.00;;;12.10;;
6791;SDS011;3433;48.730;9.108;2023-05-14T07:57:19;15.27;;;11.77;;
6791;SDS011;3433;48.730;9.108;2023-05-14T07:59:48;15.20;;;12.00;;
6791;SDS011;3433;48.730;9.108;2023-05-14T08:02:15;15.97;;;12.50;;
6791;SDS011;3433;48.730;9.108;2023-05-14T08:04:42;13.27;;;11.40;;
6791;SDS011;3433;48.730;9.108;2023-05-14T08:07:09;14.10;;;11.73;;
6791;SDS011;3433;48.730;9.108;2023-05-14T08:09:36;16.23;;;11.77;;
6791;SDS011;3433;48.730;9.108;2023-05-14T08:12:03;15.50;;;11.63;;
6791;SDS011;3433;48.730;9.108;2023-05-14T08:14:31;16.60;;;11.90;;
6791;SDS011;3433;48.730;9.108;2023-05-14T08:16:59;14.97;;;12.80;;
6791;SDS011;3433;48.730;9.108;2023-05-14T08:19:27;13.50;;;11.00;;
6791;SDS011;3433;48.730;9.108;2023-05-14T08:21:54;15.97;;;11.83;;
6791;SDS011;3433;48.730;9.108;2023-05-14T08:24:21;14.00;;;11.80;;
6791;SDS011;3433;48.730;9.108;2023-05-14T08:26:48;15.90;;;12.17;;
6791;SDS011;3433;48.730;9.108;2023-05-14T08:29:15;12.00;;;10.70;;
6791;SDS011;3433;48.730;9.108;2023-05-14T08:31:41;16.77;;;10.80;;
6791;SDS011;3433;48.730;9.108;2023-05-14T08:34:10;14.53;;;10.80;;
6791;SDS011;3433;48.730;9.108;2023-05-14T08:36:37;17.63;;;11.30;;
6791;SDS011;3433;48.730;9.108;2023-05-14T08:39:04;14.83;;;11.40;;
6791;SDS011;3433;48.730;9.108;2023-05-14T08:41:32;18.20;;;12.60;;
6791;SDS011;3433;48.730;9.108;2023-05-14T08:44:01;19.03;;;12.07;;
6791;SDS011;3433;48.730;9.108;2023-05-14T08:46:32;22.33;;;10.60;;
6791;SDS011;3433;48.730;9.108;2023-05-14T08:49:04;13.20;;;10.60;;
6791;SDS011;3433;48.730;9.108;2023-05-14T08:51:42;13.03;;;9.70;;
6791;SDS011;3433;48.730;9.108;2023-05-14T08:54:11;16.40;;;10.40;;
6791;SDS011;3433;48.730;9.108;2023-05-14T08:56:41;14.00;;;11.10;;
6791;SDS011;3433;48.730;9.108;2023-05-14T08:59:10;14.27;;;10.93;;
6791;SDS011;3433;48.730;9.108;2023-05-14T09:01:37;12.03;;;9.67;;
6791;SDS011;3433;48.730;9.108;2023-05-14T09:04:05;10.90;;;9.80;;
6791;SDS011;3433;48.730;9.108;2023-05-14T09:06:34;12.00;;;9.40;;
6791;SDS011;3433;48.730;9.108;2023-05-14T09:09:02;12.67;;;9.30;;
6791;SDS011;3433;48.730;9.108;2023-05-14T09:11:30;11.50;;;9.67;;
6791;SDS011;3433;48.730;9.108;2023-05-14T09:13:57;11.20;;;9.40;;
6791;SDS011;3433;48.730;9.108;2023-05-14T09:16:24;13.23;;;10.30;;
6791;SDS011;3433;48.730;9.108;2023-05-14T09:18:51;11.80;;;9.97;;
6791;SDS011;3433;48.730;9.108;2023-05-14T09:21:18;11.00;;;9.30;;
6791;SDS011;3433;48.730;9.108;2023-05-14T09:23:47;14.33;;;11.37;;
6791;SDS011;3433;48.730;9.108;2023-05-14T09:26:20;14.67;;;10.70;;
6791;SDS011;3433;48.730;9.108;2023-05-14T09:28:52;13.03;;;9.33;;
6791;SDS011;3433;48.730;9.108;2023-05-14T09:31:20;14.80;;;10.97;;
6791;SDS011;3433;48.730;9.108;2023-05-14T09:33:49;13.33;;;11.70;;
6791;SDS011;3433;48.730;9.108;2023-05-14T09:36:16;12.43;;;10.07;;
6791;SDS011;3433;48.730;9.108;2023-05-14T09:38:43;12.80;;;10.20;;
6791;SDS011;3433;48.730;9.108;2023-05-14T09:41:12;11.70;;;9.70;;
6791;SDS011;3433;48.730;9.108;2023-05-14T09:43:39;12.27;;;9.70;;
6791;SDS011;3433;48.730;9.108;2023-05-14T09:46:06;10.43;;;9.00;;
6791;SDS011;3433;48.730;9.108;2023-05-14T09:48:33;12.17;;;9.03;;
6791;SDS011;3433;48.730;9.108;2023-05-14T09:50:59;13.77;;;9.77;;
6791;SDS011;3433;48.730;9.108;2023-05-14T09:53:27;13.27;;;10.37;;
6791;SDS011;3433;48.730;9.108;2023-05-14T09:55:55;12.97;;;9.70;;
6791;SDS011;3433;48.730;9.108;2023-05-14T09:58:23;12.27;;;9.93;;
6791;SDS011;3433;48.730;9.108;2023-05-14T10:00:51;10.63;;;9.00;;
6791;SDS011;3433;48.730;9.108;2023-05-14T10:03:24;9.70;;;8.20;;
6791;SDS011;3433;48.730;9.108;2023-05-14T10:05:52;9.00;;;7.40;;
6791;SDS011;3433;48.730;9.108;2023-05-14T10:08:21;10.70;;;8.60;;
6791;SDS011;3433;48.730;9.108;2023-05-14T10:10:52;10.80;;;9.47;;
6791;SDS011;3433;48.730;9.108;2023-05-14T10:13:26;11.53;;;8.80;;
6791;SDS011;3433;48.730;9.108;2023-05-14T10:15:59;12.83;;;9.30;;
6791;SDS011;3433;48.730;9.108;2023-05-14T10:18:33;12.73;;;10.13;;
6791;SDS011;3433;48.730;9.108;2023-05-14T10:21:05;11.20;;;9.37;;
6791;SDS011;3433;48.730;9.108;2023-05-14T10:23:33;11.37;;;9.30;;
6791;SDS011;3433;48.730;9.108;2023-05-14T10:26:02;11.60;;;8.93;;
6791;SDS011;3433;48.730;9.108;2023-05-14T10:28:31;10.17;;;9.00;;
6791;SDS011;3433;48.730;9.108;2023-05-14T10:30:58;13.80;;;9.43;;
6791;SDS011;3433;48.730;9.108;2023-05-14T10:33:25;13.60;;;10.20;;
6791;SDS011;3433;48.730;9.108;2023-05-14T10:35:56;12.80;;;9.30;;
6791;SDS011;3433;48.730;9.108;2023-05-14T10:38:25;12.30;;;10.00;;
6791;SDS011;3433;48.730;9.108;2023-05-14T10:40:54;11.03;;;9.70;;
6791;SDS011;3433;48.730;9.108;2023-05-14T10:43:28;13.13;;;9.50;;
6791;SDS011;3433;48.730;9.108;2023-05-14T10:45:57;12.17;;;9.23;;
6791;SDS011;3433;48.730;9.108;2023-05-14T10:48:25;11.43;;;9.13;;
6791;SDS011;3433;48.730;9.108;2023-05-14T10:50:52;14.07;;;8.97;;
6791;SDS011;3433;48.730;9.108;2023-05-14T10:53:28;12.37;;;9.03;;
6791;SDS011;3433;48.730;9.108;2023-05-14T10:55:57;12.33;;;10.07;;
6791;SDS011;3433;48.730;9.108;2023-05-14T10:58:29;10.50;;;9.00;;
6791;SDS011;3433;48.730;9.108;2023-05-14T11:00:59;9.60;;;8.43;;
6791;SDS011;3433;48.730;9.108;2023-05-14T11:03:28;9.43;;;7.90;;
6791;SDS011;3433;48.730;9.108;2023-05-14T11:05:56;8.77;;;7.87;;
6791;SDS011;3433;48.730;9.108;2023-05-14T11:08:23;10.30;;;8.40;;
6791;SDS011;3433;48.730;9.108;2023-05-14T11:10:53;9.87;;;7.77;;
6791;SDS011;3433;48.730;9.108;2023-05-14T11:13:20;9.77;;;8.13;;
6791;SDS011;3433;48.730;9.108;2023-05-14T11:15:47;9.50;;;8.17;;
6791;SDS011;3433;48.730;9.108;2023-05-14T11:18:26;10.80;;;9.50;;
6791;SDS011;3433;48.730;9.108;2023-05-14T11:20:56;10.33;;;8.87;;
6791;SDS011;3433;48.730;9.108;2023-05-14T11:23:24;14.30;;;8.50;;
6791;SDS011;3433;48.730;9.108;2023-05-14T11:25:51;8.50;;;7.63;;
6791;SDS011;3433;48.730;9.108;2023-05-14T11:28:22;9.30;;;8.30;;
6791;SDS011;3433;48.730;9.108;2023-05-14T11:30:51;10.17;;;8.30;;
6791;SDS011;3433;48.730;9.108;2023-05-14T11:33:19;11.37;;;8.83;;
6791;SDS011;3433;48.730;9.108;2023-05-14T11:35:47;9.23;;;8.33;;
6791;SDS011;3433;48.730;9.108;2023-05-14T11:38:14;9.33;;;8.27;;
6791;SDS011;3433;48.730;9.108;2023-05-14T11:40:42;9.73;;;8.33;;
6791;SDS011;3433;48.730;9.108;2023-05-14T11:43:16;11.10;;;9.30;;
6791;SDS011;3433;48.730;9.108;2023-05-14T11:45:43;10.33;;;8.10;;
6791;SDS011;3433;48.730;9.108;2023-05-14T11:48:15;11.37;;;9.70;;
6791;SDS011;3433;48.730;9.108;2023-05-14T11:50:43;11.53;;;8.63;;
6791;SDS011;3433;48.730;9.108;2023-05-14T11:53:16;14.00;;;10.20;;
6791;SDS011;3433;48.730;9.108;2023-05-14T11:55:44;11.93;;;9.70;;
6791;SDS011;3433;48.730;9.108;2023-05-14T11:58:11;11.30;;;8.87;;
6791;SDS011;3433;48.730;9.108;2023-05-14T12:00:39;8.80;;;7.90;;
6791;SDS011;3433;48.730;9.108;2023-05-14T12:03:09;7.70;;;6.30;;
6791;SDS011;3433;48.730;9.108;2023-05-14T12:05:36;7.80;;;6.97;;
6791;SDS011;3433;48.730;9.108;2023-05-14T12:10:47;8.50;;;7.57;;
6791;SDS011;3433;48.730;9.108;2023-05-14T12:13:14;10.23;;;7.80;;
6791;SDS011;3433;48.730;9.108;2023-05-14T12:15:45;10.67;;;8.80;;
6791;SDS011;3433;48.730;9.108;2023-05-14T12:18:19;8.97;;;8.13;;
6791;SDS011;3433;48.730;9.108;2023-05-14T12:20:46;14.33;;;7.63;;
6791;SDS011;3433;48.730;9.108;2023-05-14T12:23:15;9.67;;;7.60;;
6791;SDS011;3433;48.730;9.108;2023-05-14T12:25:49;10.23;;;8.00;;
6791;SDS011;3433;48.730;9.108;2023-05-14T12:28:16;9.47;;;8.50;;
6791;SDS011;3433;48.730;9.108;2023-05-14T12:30:44;8.87;;;7.97;;
6791;SDS011;3433;48.730;9.108;2023-05-14T12:33:11;8.43;;;7.47;;
6791;SDS011;3433;48.730;9.108;2023-05-14T12:35:39;8.10;;;7.30;;
6791;SDS011;3433;48.730;9.108;2023-05-14T12:38:06;10.63;;;8.50;;
6791;SDS011;3433;48.730;9.108;2023-05-14T12:40:33;8.93;;;7.90;;
6791;SDS011;3433;48.730;9.108;2023-05-14T12:43:06;8.73;;;7.33;;
6791;SDS011;3433;48.730;9.108;2023-05-14T12:45:33;9.27;;;7.17;;
6791;SDS011;3433;48.730;9.108;2023-05-14T12:48:00;12.10;;;8.30;;
6791;SDS011;3433;48.730;9.108;2023-05-14T12:50:28;8.27;;;7.47;;
6791;SDS011;3433;48.730;9.108;2023-05-14T12:52:55;8.37;;;7.40;;
6791;SDS011;3433;48.730;9.108;2023-05-14T12:55:22;8.63;;;7.60;;
6791;SDS011;3433;48.730;9.108;2023-05-14T12:57:49;8.23;;;7.43;;
6791;SDS011;3433;48.730;9.108;2023-05-14T13:00:18;11.03;;;7.27;;
6791;SDS011;3433;48.730;9.108;2023-05-14T13:02:45;9.20;;;8.30;;
6791;SDS011;3433;48.730;9.108;2023-05-14T13:05:12;10.60;;;8.00;;
6791;SDS011;3433;48.730;9.108;2023-05-14T13:07:39;8.60;;;7.40;;
6791;SDS011;3433;48.730;9.108;2023-05-14T13:10:07;7.00;;;6.40;;
6791;SDS011;3433;48.730;9.108;2023-05-14T13:12:35;6.50;;;5.80;;
6791;SDS011;3433;48.730;9.108;2023-05-14T13:15:03;6.97;;;6.17;;
6791;SDS011;3433;48.730;9.108;2023-05-14T13:17:36;5.87;;;5.33;;
6791;SDS011;3433;48.730;9.108;2023-05-14T13:20:04;6.10;;;5.17;;
6791;SDS011;3433;48.730;9.108;2023-05-14T13:22:33;5.23;;;4.83;;
6791;SDS011;3433;48.730;9.108;2023-05-14T13:25:01;5.10;;;4.70;;
6791;SDS011;3433;48.730;9.108;2023-05-14T13:27:29;6.13;;;5.53;;
6791;SDS011;3433;48.730;9.108;2023-05-14T13:29:56;6.60;;;5.97;;
6791;SDS011;3433;48.730;9.108;2023-05-14T13:32:24;6.53;;;5.80;;
6791;SDS011;3433;48.730;9.108;2023-05-14T13:34:52;5.50;;;5.00;;
6791;SDS011;3433;48.730;9.108;2023-05-14T13:37:20;5.20;;;4.70;;
6791;SDS011;3433;48.730;9.108;2023-05-14T13:39:47;5.50;;;5.03;;
6791;SDS011;3433;48.730;9.108;2023-05-14T13:42:14;5.40;;;4.90;;
6791;SDS011;3433;48.730;9.108;2023-05-14T13:44:41;6.40;;;5.80;;
6791;SDS011;3433;48.730;9.108;2023-05-14T13:47:08;5.97;;;5.37;;
6791;SDS011;3433;48.730;9.108;2023-05-14T13:49:39;5.83;;;5.27;;
6791;SDS011;3433;48.730;9.108;2023-05-14T13:52:08;6.90;;;6.20;;
6791;SDS011;3433;48.730;9.108;2023-05-14T13:54:36;6.33;;;5.73;;
6791;SDS011;3433;48.730;9.108;2023-05-14T13:57:05;6.13;;;5.33;;
6791;SDS011;3433;48.730;9.108;2023-05-14T13:59:38;6.70;;;5.77;;
6791;SDS011;3433;48.730;9.108;2023-05-14T14:02:08;6.53;;;5.83;;
6791;SDS011;3433;48.730;9.108;2023-05-14T14:04:36;6.37;;;5.77;;
6791;SDS011;3433;48.730;9.108;2023-05-14T14:07:08;6.67;;;6.07;;
6791;SDS011;3433;48.730;9.108;2023-05-14T14:09:39;6.53;;;5.80;;
6791;SDS011;3433;48.730;9.108;2023-05-14T14:12:09;8.93;;;6.40;;
6791;SDS011;3433;48.730;9.108;2023-05-14T14:14:38;6.83;;;6.10;;
6791;SDS011;3433;48.730;9.108;2023-05-14T14:17:05;6.80;;;6.10;;
6791;SDS011;3433;48.730;9.108;2023-05-14T14:19:33;7.23;;;6.53;;
6791;SDS011;3433;48.730;9.108;2023-05-14T14:22:01;6.53;;;5.83;;
6791;SDS011;3433;48.730;9.108;2023-05-14T14:24:33;13.27;;;6.47;;
6791;SDS011;3433;48.730;9.108;2023-05-14T14:27:01;7.10;;;6.07;;
6791;SDS011;3433;48.730;9.108;2023-05-14T14:29:29;6.10;;;5.57;;
6791;SDS011;3433;48.730;9.108;2023-05-14T14:32:01;5.63;;;5.17;;
6791;SDS011;3433;48.730;9.108;2023-05-14T14:34:29;6.00;;;5.30;;
6791;SDS011;3433;48.730;9.108;2023-05-14T14:36:57;7.23;;;6.53;;
6791;SDS011;3433;48.730;9.108;2023-05-14T14:39:24;7.13;;;5.10;;
6791;SDS011;3433;48.730;9.108;2023-05-14T14:41:52;5.30;;;4.80;;
6791;SDS011;3433;48.730;9.108;2023-05-14T14:44:20;5.77;;;5.17;;
6791;SDS011;3433;48.730;9.108;2023-05-14T14:46:47;5.10;;;4.70;;
6791;SDS011;3433;48.730;9.108;2023-05-14T14:49:15;5.00;;;4.50;;
6791;SDS011;3433;48.730;9.108;2023-05-14T14:51:42;4.97;;;4.47;;
6791;SDS011;3433;48.730;9.108;2023-05-14T14:54:11;5.67;;;5.00;;
6791;SDS011;3433;48.730;9.108;2023-05-14T14:56:38;5.67;;;5.10;;
6791;SDS011;3433;48.730;9.108;2023-05-14T14:59:09;6.80;;;6.20;;
6791;SDS011;3433;48.730;9.108;2023-05-14T15:01:37;7.33;;;6.63;;
6791;SDS011;3433;48.730;9.108;2023-05-14T15:04:22;7.73;;;6.30;;
6791;SDS011;3433;48.730;9.108;2023-05-14T15:06:50;6.30;;;5.67;;